Portada
METAR-TAF:

METAR-TAF

Aeroports :

Lawrence J. Timmerman Airport

Milwaukee, Wisconsin, Estats Units d'Amèrica

latitud: 43-07N, longitud: 088-02W, altitud: 227 m

Observació

L'informe es va fer fa 18 minuts, a les 07:15 UTC
Vent 12 kt del Oest/Nord-Oest amb ràfegues de 20 kt
Temperatura 3°C
Humitat 81%
Pressió 1013 hPa
Visibilitat: 16.1 km
Cel cobert a una alçada de 2000 ft

METAR: KMWC 300715Z AUTO 30012G20KT 10SM OVC020 03/00 A2991 RMK AO2

Hora: 02:33 (07:33 UTC)


TAF: manca

Observacions i pronòstics meteorològics de més de 4000 aeroports (METAR i TAF).

Les estacions disponibles són els punts grocs i vermells al mapa.

Posi el ratolí al punt desitjat per veure el nom de l'estació.

Feu clic per veure les observacions i els pronòstics meteorològics.

Per canviar el mapa: feu clic els botons verds amb una creu de color negre per apropar; al botó verd amb un guió per allunyar la imatge; o en les fletxes verdes per a mapes adjacents.


METAR-TAF: